createdAt,value
2023-03-11T00:00:02.561Z,0.80
2023-03-11T00:04:07.258Z,0.38
2023-03-11T00:08:14.561Z,0.95
2023-03-11T00:12:17.776Z,0.55
2023-03-11T00:16:21.316Z,0.68
2023-03-11T00:20:29.151Z,0.40
2023-03-11T00:24:32.151Z,0.60
2023-03-11T00:28:35.457Z,0.82
2023-03-11T00:32:38.717Z,0.50
2023-03-11T00:36:43.282Z,0.63
2023-03-11T00:40:48.086Z,0.52
2023-03-11T00:44:51.016Z,0.60
2023-03-11T00:48:54.870Z,0.43
2023-03-11T00:52:59.982Z,0.50
2023-03-11T00:57:02.925Z,0.60
2023-03-11T01:01:12.083Z,0.50
2023-03-11T01:05:15.817Z,1.05
2023-03-11T01:09:20.434Z,0.70
2023-03-11T01:13:23.803Z,0.73
2023-03-11T01:17:26.849Z,0.50
2023-03-11T01:21:30.218Z,0.85
2023-03-11T01:25:34.966Z,0.60
2023-03-11T01:29:37.857Z,0.80
2023-03-11T01:33:41.514Z,0.57
2023-03-11T01:37:44.979Z,1.00
2023-03-11T01:41:49.522Z,0.90
2023-03-11T01:46:13.967Z,0.70
2023-03-11T01:50:17.302Z,0.90
2023-03-11T01:54:23.127Z,0.98
2023-03-11T01:58:32.308Z,0.70
2023-03-11T02:02:38.208Z,0.90
2023-03-11T02:06:41.972Z,1.00
2023-03-11T02:10:46.192Z,1.50
2023-03-11T02:14:54.698Z,1.05
2023-03-11T02:19:00.196Z,0.70
2023-03-11T02:23:04.241Z,0.90
2023-03-11T02:27:10.807Z,0.70
2023-03-11T02:31:14.744Z,0.60
2023-03-11T02:35:18.712Z,0.63
2023-03-11T02:39:31.786Z,0.50
2023-03-11T02:43:42.072Z,0.50
2023-03-11T02:47:45.785Z,0.65
2023-03-11T02:51:49.023Z,0.70
2023-03-11T02:55:52.158Z,0.60
2023-03-11T02:59:56.403Z,0.90
2023-03-11T03:03:59.735Z,0.70
2023-03-11T03:08:03.969Z,0.57
2023-03-11T03:12:07.934Z,0.40
2023-03-11T03:16:12.339Z,0.55
2023-03-11T03:20:16.430Z,0.50
2023-03-11T03:24:19.543Z,0.63
2023-03-11T03:28:22.781Z,0.40
2023-03-11T03:32:27.222Z,0.50
2023-03-11T03:36:32.254Z,0.50
2023-03-11T03:40:35.430Z,0.52
2023-03-11T03:44:38.321Z,0.43
2023-03-11T03:48:43.532Z,0.70
2023-03-11T03:52:46.927Z,0.50
2023-03-11T03:56:50.581Z,0.50
2023-03-11T04:00:57.426Z,0.70
2023-03-11T04:05:02.423Z,0.70
2023-03-11T04:09:05.678Z,0.60
2023-03-11T04:13:09.058Z,0.60
2023-03-11T04:17:13.701Z,0.85
2023-03-11T04:21:18.800Z,0.70
2023-03-11T04:25:21.965Z,0.70
2023-03-11T04:29:25.177Z,0.65
2023-03-11T04:33:28.618Z,0.60
2023-03-11T04:37:33.873Z,0.70
2023-03-11T04:41:37.830Z,0.80
2023-03-11T04:45:41.428Z,0.60
2023-03-11T04:49:44.900Z,0.60
2023-03-11T04:53:49.690Z,0.75
2023-03-11T04:57:52.868Z,0.60
2023-03-11T05:01:55.817Z,0.70
2023-03-11T05:06:00.465Z,1.05
2023-03-11T05:10:06.461Z,0.75
2023-03-11T05:14:09.755Z,0.75
2023-03-11T05:18:12.686Z,0.65
2023-03-11T05:22:16.212Z,0.68
2023-03-11T05:26:20.506Z,0.82
2023-03-11T05:30:24.235Z,1.00
2023-03-11T05:34:27.499Z,1.10
2023-03-11T05:38:30.719Z,0.93
2023-03-11T05:42:35.085Z,0.80
2023-03-11T05:46:38.514Z,0.70
2023-03-11T05:50:41.843Z,0.85
2023-03-11T05:54:45.335Z,1.23
2023-03-11T05:58:50.887Z,0.98
2023-03-11T06:02:54.184Z,0.90
2023-03-11T06:06:57.064Z,0.82
2023-03-11T06:11:03.983Z,1.15
2023-03-11T06:15:09.988Z,0.80
2023-03-11T06:19:14.421Z,0.90
2023-03-11T06:23:17.332Z,1.00
2023-03-11T06:27:20.725Z,0.80
2023-03-11T06:31:27.204Z,0.60
2023-03-11T06:35:30.819Z,0.65
2023-03-11T06:44:08.635Z,0.95
2023-03-11T06:48:13.211Z,0.93
2023-03-11T06:52:16.558Z,0.65
2023-03-11T06:56:20.218Z,0.80
2023-03-11T07:00:23.593Z,0.90
2023-03-11T07:04:28.155Z,0.93
2023-03-11T07:08:31.759Z,0.80
2023-03-11T07:12:34.657Z,0.85
2023-03-11T07:16:41.132Z,1.13
2023-03-11T07:20:45.488Z,0.90
2023-03-11T07:24:49.691Z,0.90
2023-03-11T07:28:52.946Z,0.70
2023-03-11T07:32:56.514Z,0.70
2023-03-11T07:37:01.046Z,0.50
2023-03-11T07:41:04.309Z,0.80
2023-03-11T07:45:08.373Z,0.73
2023-03-11T07:49:11.988Z,0.52
2023-03-11T07:53:16.557Z,0.60
2023-03-11T07:57:20.033Z,0.57
2023-03-11T08:01:27.287Z,0.77
2023-03-11T08:05:34.729Z,0.70
2023-03-11T08:09:39.263Z,0.38
2023-03-11T08:13:42.717Z,0.50
2023-03-11T08:17:45.615Z,0.47
2023-03-11T08:21:48.648Z,0.63
2023-03-11T08:25:53.300Z,0.60
2023-03-11T08:29:56.696Z,0.60
2023-03-11T08:34:02.716Z,0.75
2023-03-11T08:38:06.122Z,0.63
2023-03-11T08:42:10.545Z,0.40
2023-03-11T08:46:19.223Z,0.50
2023-03-11T08:50:22.292Z,0.40
2023-03-11T08:54:25.657Z,0.43
2023-03-11T08:58:32.573Z,0.70
2023-03-11T09:02:36.058Z,0.60
2023-03-11T09:06:42.659Z,0.50
2023-03-11T09:10:45.962Z,0.45
2023-03-11T09:14:50.274Z,0.60
2023-03-11T09:18:53.518Z,0.57
2023-03-11T09:22:56.493Z,0.90
2023-03-11T09:26:59.893Z,0.95
2023-03-11T09:31:04.350Z,0.60
2023-03-11T09:35:08.273Z,1.02
2023-03-11T09:39:11.344Z,0.80
2023-03-11T09:43:27.465Z,0.70
2023-03-11T09:47:48.836Z,0.80
2023-03-11T09:51:59.638Z,0.93
2023-03-11T09:56:07.511Z,0.63
2023-03-11T10:00:14.661Z,0.77
2023-03-11T10:04:27.042Z,0.60
2023-03-11T10:08:38.279Z,0.98
2023-03-11T10:12:50.863Z,0.65
2023-03-11T10:17:02.999Z,0.50
2023-03-11T10:21:16.057Z,0.80
2023-03-11T10:25:23.437Z,0.70
2023-03-11T10:29:29.004Z,0.63
2023-03-11T10:33:39.964Z,0.50
2023-03-11T10:37:50.211Z,0.60
2023-03-11T10:41:56.790Z,0.60
2023-03-11T10:46:00.490Z,1.10
2023-03-11T10:50:04.877Z,0.40
2023-03-11T10:54:09.153Z,0.55
2023-03-11T10:58:15.734Z,0.80
2023-03-11T11:02:28.905Z,0.75
2023-03-11T11:06:34.375Z,0.60
2023-03-11T11:10:49.986Z,0.60
2023-03-11T11:14:55.749Z,0.50
2023-03-11T11:19:04.319Z,0.50
2023-03-11T11:23:08.108Z,0.73
2023-03-11T11:27:18.408Z,0.52
2023-03-11T11:31:25.160Z,0.50
2023-03-11T11:35:28.179Z,0.70
2023-03-11T11:39:38.334Z,1.35
2023-03-11T11:43:50.776Z,0.65
2023-03-11T11:47:57.067Z,0.98
2023-03-11T11:52:07.148Z,0.77
2023-03-11T11:56:10.438Z,0.60
2023-03-11T12:00:25.586Z,0.80
2023-03-11T12:04:39.363Z,0.70
2023-03-11T12:08:47.917Z,0.90
2023-03-11T12:13:15.705Z,0.70
2023-03-11T12:17:23.686Z,0.70
2023-03-11T12:21:42.004Z,0.63
2023-03-11T12:26:04.637Z,0.88
2023-03-11T12:30:16.748Z,1.20
2023-03-11T12:34:24.958Z,0.70
2023-03-11T12:38:34.598Z,0.70
2023-03-11T12:42:41.622Z,0.68
2023-03-11T12:47:24.256Z,0.70
2023-03-11T12:51:42.154Z,0.80
2023-03-11T12:56:04.207Z,0.73
2023-03-11T13:00:23.158Z,0.53
2023-03-11T13:04:37.635Z,1.02
2023-03-11T13:08:48.442Z,0.52
2023-03-11T13:12:53.366Z,0.77
2023-03-11T13:16:56.950Z,0.35
2023-03-11T13:21:02.105Z,0.98
2023-03-11T13:30:02.380Z,0.60
2023-03-11T13:34:16.028Z,0.70
2023-03-11T13:38:43.227Z,0.52
2023-03-11T13:42:49.175Z,0.95
2023-03-11T13:46:58.319Z,0.63
2023-03-11T13:51:05.814Z,0.60
2023-03-11T13:55:17.449Z,0.60
2023-03-11T13:59:24.899Z,0.60
2023-03-11T14:03:35.241Z,0.50
2023-03-11T14:07:38.761Z,0.60
2023-03-11T14:11:47.940Z,0.50
2023-03-11T14:16:01.732Z,0.57
2023-03-11T14:20:16.832Z,0.68
2023-03-11T14:24:23.267Z,0.68
2023-03-11T14:28:30.213Z,0.90
2023-03-11T14:32:35.422Z,0.98
2023-03-11T14:36:45.594Z,0.60
2023-03-11T14:40:55.247Z,0.90
2023-03-11T14:45:05.316Z,0.85
2023-03-11T14:49:09.754Z,0.60
2023-03-11T14:53:21.115Z,0.70
2023-03-11T14:57:30.436Z,0.93
2023-03-11T15:01:36.945Z,0.55
2023-03-11T15:05:45.702Z,0.95
2023-03-11T15:09:50.603Z,0.63
2023-03-11T15:13:54.635Z,0.75
2023-03-11T15:18:00.543Z,0.88
2023-03-11T15:22:22.641Z,0.85
2023-03-11T15:26:29.878Z,0.80
2023-03-11T15:42:43.595Z,1.02
2023-03-11T15:46:47.458Z,0.65
2023-03-11T15:50:53.619Z,0.73
2023-03-11T15:54:57.163Z,0.75
2023-03-11T15:59:02.100Z,0.75
2023-03-11T16:03:05.654Z,0.95
2023-03-11T16:07:09.376Z,1.15
2023-03-11T16:11:14.101Z,1.17
2023-03-11T16:15:25.155Z,0.70
2023-03-11T16:19:28.413Z,0.60
2023-03-11T16:23:50.175Z,0.68
2023-03-11T16:31:59.848Z,0.82
2023-03-11T16:36:03.617Z,1.15
2023-03-11T16:40:08.307Z,0.70
2023-03-11T16:44:11.539Z,1.02
2023-03-11T16:48:16.311Z,1.55
2023-03-11T16:52:20.955Z,1.25
2023-03-11T16:56:24.442Z,0.75
2023-03-11T17:00:27.482Z,0.60
2023-03-11T17:04:32.231Z,0.70
2023-03-11T17:08:35.339Z,1.48
2023-03-11T17:12:38.662Z,0.70
2023-03-11T17:16:41.564Z,1.00
2023-03-11T17:20:46.222Z,1.13
2023-03-11T17:24:49.104Z,1.00
2023-03-11T17:28:52.241Z,1.08
2023-03-11T17:32:55.206Z,1.52
2023-03-11T17:36:59.842Z,1.48
2023-03-11T17:41:08.115Z,1.33
2023-03-11T17:45:12.372Z,0.85
2023-03-11T17:49:16.248Z,1.10
2023-03-11T17:53:20.881Z,1.20
2023-03-11T17:57:23.980Z,1.15
2023-03-11T18:01:29.040Z,1.25
2023-03-11T18:05:32.142Z,1.25
2023-03-11T18:09:36.810Z,0.80
2023-03-11T18:13:40.457Z,1.10
2023-03-11T18:17:43.816Z,0.95
2023-03-11T18:21:47.086Z,0.80
2023-03-11T18:25:55.009Z,0.88
2023-03-11T18:29:58.709Z,1.13
2023-03-11T18:34:03.553Z,1.35
2023-03-11T18:38:06.708Z,0.80
2023-03-11T18:42:11.730Z,1.00
2023-03-11T18:46:20.649Z,1.10
2023-03-11T18:50:23.939Z,1.15
2023-03-11T18:54:27.680Z,1.10
2023-03-11T18:58:32.604Z,1.20
2023-03-11T19:02:35.508Z,0.65
2023-03-11T19:06:38.776Z,1.17
2023-03-11T19:10:42.032Z,0.70
2023-03-11T19:14:46.653Z,1.15
2023-03-11T19:18:53.396Z,1.15
2023-03-11T19:22:56.742Z,0.93
2023-03-11T19:26:59.935Z,1.23
2023-03-11T19:31:05.431Z,1.10
2023-03-11T19:35:11.136Z,0.93
2023-03-11T19:39:14.625Z,1.15
2023-03-11T19:43:19.345Z,1.17
2023-03-11T19:47:24.910Z,1.42
2023-03-11T19:51:32.927Z,0.65
2023-03-11T19:55:44.688Z,1.00
2023-03-11T19:59:47.950Z,0.98
2023-03-11T20:03:53.726Z,1.08
2023-03-11T20:07:59.140Z,1.42
2023-03-11T20:12:03.429Z,1.63
2023-03-11T20:16:09.482Z,1.00
2023-03-11T20:20:14.827Z,1.30
2023-03-11T20:24:19.361Z,1.33
2023-03-11T20:28:22.766Z,1.33
2023-03-11T20:32:25.899Z,2.55
2023-03-11T20:36:33.422Z,1.63
2023-03-11T20:40:36.455Z,1.27
2023-03-11T20:44:39.992Z,1.20
2023-03-11T20:48:44.322Z,1.30
2023-03-11T20:52:49.265Z,1.15
2023-03-11T20:56:52.256Z,1.80
2023-03-11T21:00:55.777Z,1.27
2023-03-11T21:04:59.041Z,1.15
2023-03-11T21:09:06.285Z,1.25
2023-03-11T21:13:09.300Z,1.58
2023-03-11T21:17:12.889Z,1.33
2023-03-11T21:21:17.482Z,1.13
2023-03-11T21:25:22.498Z,1.30
2023-03-11T21:29:25.475Z,1.83
2023-03-11T21:33:29.265Z,1.08
2023-03-11T21:37:32.526Z,0.82
2023-03-11T21:41:40.390Z,1.23
2023-03-11T21:45:43.760Z,1.10
2023-03-11T21:49:47.046Z,1.77
2023-03-11T21:53:53.120Z,1.35
2023-03-11T21:57:57.759Z,2.17
2023-03-11T22:02:03.314Z,1.35
2023-03-11T22:06:09.637Z,1.85
2023-03-11T22:10:12.981Z,1.50
2023-03-11T22:14:17.615Z,1.58
2023-03-11T22:18:20.489Z,1.42
2023-03-11T22:22:23.784Z,1.50
2023-03-11T22:26:26.921Z,1.60
2023-03-11T22:30:32.179Z,1.95
2023-03-11T22:34:35.113Z,1.58
2023-03-11T22:38:41.954Z,1.30
2023-03-11T22:42:45.058Z,1.63
2023-03-11T22:46:49.692Z,2.03
2023-03-11T22:50:52.599Z,1.30
2023-03-11T22:54:55.983Z,1.25
2023-03-11T22:58:59.514Z,1.35
2023-03-11T23:03:04.798Z,1.17
2023-03-11T23:07:07.734Z,1.30
2023-03-11T23:11:13.414Z,1.17
2023-03-11T23:15:17.968Z,1.50
2023-03-11T23:19:22.812Z,1.42
2023-03-11T23:23:26.140Z,1.48
2023-03-11T23:27:30.556Z,1.60
2023-03-11T23:31:33.726Z,1.60
2023-03-11T23:35:42.344Z,1.65
2023-03-11T23:39:45.575Z,1.52
2023-03-11T23:43:48.733Z,1.48
2023-03-11T23:47:51.748Z,1.30
2023-03-11T23:51:58.203Z,2.55
2023-03-11T23:56:01.383Z,2.05
